Overton, Nevada Weather observations

Data are for observation ending at time listed.
 Day   Time    Ave.   Ave.  Ave.  Vector   Max.   Stn.    Total    Solar   Ave.  
  of    of     Air    Rel.  Wind   Wind    Wind   Baro.  Precip.   Rad.    Soil  
Year   Day     Temp.  Hum.  Speed  Dir.    Gust   Pres.                    Temp. 
2016   (PST)    F      %     mph   deg.    mph     mb.     in.     W/m2     F   
------------------------------------------------------------------------------
 269   13:30   88.7    13   11.0    13     18.3   975.1    0.00     642    84.1
 269   13:40   89.2    13    8.2    32     13.8   975.0    0.00     623    84.3
 269   13:50   89.6    12    8.5    32     20.5   974.9    0.00     603    84.5
 269   14:00   89.9    12    8.8    14     15.1   974.9    0.00     583    84.6
 269   14:10   90.1    12    8.5    28     14.7   974.8    0.00     561    84.8
 269   14:20   90.2    12    9.9    18     15.8   974.6    0.00     538    84.9
 269   14:30   90.2    12    9.4    17     20.0   974.6    0.00     513    85.1
 269   14:40   90.6    12    9.4     7     14.9   974.4    0.00     477    85.3
 269   14:50   90.2    12   10.0    27     15.6   974.3    0.00     461    85.4
 269   15:00   90.5    12    7.8    21     14.3   974.2    0.00     427    85.6
 269   15:10   90.9    12    5.8    17     11.3   974.1    0.00     403    85.6
 269   15:20   90.5    12    6.5    38     11.2   974.0    0.00     369    85.7
 269   15:30   90.4    12    6.3    45     10.1   973.8    0.00     337    85.7
 269   15:40   90.2    12    6.2    53     10.7   973.7    0.00     296    85.7
 269   15:50   90.4    12    5.6    33      9.5   973.6    0.00     285    85.7
 269   16:00   90.3    12    6.6    36     11.9   973.6    0.00     254    85.7
 269   16:10   90.4    12    5.6    26     11.3   973.5    0.00     223    85.7
 269   16:20   90.1    12    5.8    27      9.2   973.4    0.00     193    85.7
 269   16:30   90.0    12    5.4    22      8.4   973.3    0.00     163    85.6
 269   16:40   89.7    12    5.0    30      7.4   973.1    0.00     134    85.6
 269   16:50   89.3    13    3.6    33      7.2   973.1    0.00      93    85.4
 269   17:00   88.6    13    5.0    40      8.3   973.0    0.00      63    85.2
 269   17:10   88.0    13    4.2    42      6.1   973.0    0.00      44    85.1
 269   17:20   87.4    13    4.3    45      7.3   972.9    0.00      14    85.0
 269   17:30   86.6    13    3.1    37      5.1   972.8    0.00       7    84.8
 269   17:40   85.9    14    2.6    32      3.6   972.7    0.00       3    84.5
 269   17:50   85.3    14    2.8    40      4.3   972.7    0.00       0    84.2
 269   18:00   84.3    14    1.6    22      3.3   972.6    0.00       0    83.8
 269   18:10   82.3    16    1.8    14      2.4   972.6    0.00       0    83.5
 269   18:20   78.7    19    1.9   359      2.4   972.5    0.00       0    83.1
 269   18:30   77.2    20    2.1   309      2.7   972.6    0.00       0    82.7
 269   18:40   75.9    21    1.4   314      2.9   972.7    0.00       0    82.3
 269   18:50   76.9    19    1.5     7      5.2   972.7    0.00       0    82.0
 269   19:00   80.0    16    5.0    11     10.3   972.7    0.00       0    81.7
 269   19:10   82.6    14    6.8    22     11.0   972.8    0.00       0    81.4
 269   19:20   83.0    14    6.5    21     10.4   973.1    0.00       0    81.3
 269   19:30   82.6    14    7.2    17     11.5   973.4    0.00       0    81.2
 269   19:40   82.6    14    6.2    19     10.8   973.6    0.00       0    81.1
 269   19:50   82.3    14    6.3    17     10.6   973.8    0.00       0    80.9
 269   20:00   82.1    14    6.0    16      9.9   973.9    0.00       0    80.8
 269   20:10   81.7    14    4.5    19      8.2   973.9    0.00       0    80.6
 269   20:20   81.3    14    6.4    13      9.2   973.9    0.00       0    80.5
 269   20:30   81.1    14    8.7    12     14.7   973.9    0.00       0    80.3
 269   20:40   81.4    14   10.5    11     15.9   973.8    0.00       0    80.2
 269   20:50   81.6    14   10.3     8     17.1   973.8    0.00       0    80.1
 269   21:00   81.1    14   10.0     7     14.9   973.9    0.00       0    80.1
 269   21:10   81.3    14   10.0    16     18.7   973.9    0.00       0    80.0
 269   21:20   81.4    14    9.7    15     16.1   973.9    0.00       0    79.9
 269   21:30   81.5    14   11.0    15     16.8   973.9    0.00       0    79.8
 269   21:40   81.4    14   12.0    16     17.6   973.9    0.00       0    79.8
 269   21:50   81.1    15   12.2    14     18.6   974.1    0.00       0    79.7
 269   22:00   80.4    15   10.5     4     15.9   974.2    0.00       0    79.7
 269   22:10   80.0    16    9.4     3     16.1   974.1    0.00       0    79.6
 269   22:20   79.6    17    8.7   356     13.7   974.1    0.00       0    79.4
 269   22:30   78.9    18    7.5   343     14.3   974.1    0.00       0    79.3
 269   22:40   77.8    18    6.8   330     10.4   974.2    0.00       0    79.2
 269   22:50   78.2    19    8.7   338     12.9   974.1    0.00       0    79.0
 269   23:00   78.3    19    9.7   348     14.8   974.0    0.00       0    78.8
 269   23:10   78.2    19    9.5   350     14.4   974.0    0.00       0    78.7
 269   23:20   77.6    20    9.2   347     13.5   974.0    0.00       0    78.6
 269   23:30   76.7    21    7.2   351     11.4   973.9    0.00       0    78.4
 269   23:40   77.0    21    7.9     2     12.5   973.9    0.00       0    78.2
 269   23:50   77.1    22    8.4   353     13.2   973.8    0.00       0    78.1
 270    0:00   76.4    22    7.8   324     11.0   973.9    0.00       0    78.0
 270    0:10   75.3    23    6.2   316      9.9   973.8    0.00       0    77.8
 270    0:20   74.8    24    6.0   314     10.2   973.8    0.00       0    77.6
 270    0:30   73.6    25    3.9   313      7.3   973.8    0.00       0    77.4
 270    0:40   73.9    25    1.8   292      5.6   973.8    0.00       0    77.1
 270    0:50   74.3    24    2.9   273      6.5   973.8    0.00       0    76.9
 270    1:00   74.9    24    1.2   265      3.4   973.8    0.00       0    76.7
 270    1:10   74.5    24    1.8   324      3.8   973.9    0.00       0    76.6
 270    1:20   71.3    27    3.0   321      5.0   973.8    0.00       0    76.3
 270    1:30   71.6    26    4.4   314      5.9   973.6    0.00       0    76.1
 270    1:40   73.4    25    5.3   303      7.4   973.5    0.00       0    75.9
 270    1:50   74.6    24    5.7   309     12.3   973.5    0.00       0    75.8
 270    2:00   74.6    24    5.6   296     10.3   973.5    0.00       0    75.7
 270    2:10   75.2    24    4.1   283     11.6   973.5    0.00       0    75.6
 270    2:20   74.6    25    2.7   342      8.3   973.6    0.00       0    75.6
 270    2:30   71.6    28    2.6   342      4.2   973.6    0.00       0    75.5
 270    2:40   69.8    30    2.9   354      4.8   973.6    0.00       0    75.3
 270    2:50   70.5    29    3.6   310      8.3   973.5    0.00       0    75.1
 270    3:00   72.8    27    4.2   315      9.3   973.5    0.00       0    74.9
 270    3:10   73.5    27    4.8   318      9.7   973.6    0.00       0    74.8
 270    3:20   73.8    27    4.9   314     10.4   973.7    0.00       0    74.8
 270    3:30   74.0    27    7.1   327     13.2   973.7    0.00       0    74.7
 270    3:40   74.0    27    7.7   340     14.5   973.9    0.00       0    74.7
 270    3:50   74.2    27    7.9   340     12.4   974.0    0.00       0    74.7
 270    4:00   74.0    27    8.0   326     14.4   974.1    0.00       0    74.6
 270    4:10   73.3    27    6.6   322     15.4   974.2    0.00       0    74.6
 270    4:20   71.5    29    4.9   337      8.0   974.2    0.00       0    74.5
 270    4:30   70.3    30    5.1   340      8.0   974.2    0.00       0    74.3
 270    4:40   69.0    32    3.2   339      5.9   974.2    0.00       0    74.2
 270    4:50   68.5    32    2.4   249      4.6   974.3    0.00       0    74.0
 270    5:00   67.2    34    1.2   242      3.9   974.3    0.00       0    73.8
 270    5:10   66.6    34    2.7   308      5.1   974.3    0.00       0    73.7
 270    5:20   65.8    35    2.4   310      5.8   974.3    0.00       0    73.5
 270    5:30   65.2    35    2.8   327      5.7   974.3    0.00       3    73.2
 270    5:40   64.0    38    1.9   299      4.1   974.3    0.00       7    73.0
 270    5:50   64.0    37    2.7   289      5.4   974.3    0.00      16    72.9
 270    6:00   65.0    36    2.1   257      4.8   974.4    0.00      44    72.7
 270    6:10   65.5    34    2.3   299      4.2   974.4    0.00      71    72.6
 270    6:20   65.6    35    3.4   314      4.2   974.5    0.00     108    72.9
 270    6:30   66.9    33    3.3   299      5.0   974.7    0.00     134    73.4
 270    6:40   69.3    32    3.1   332      4.5   975.0    0.00     169    74.1
 270    6:50   70.6    32    2.8   346      4.8   975.2    0.00     119    74.9
 270    7:00   73.2    26    4.6   357      7.8   975.4    0.00      41    75.7
 270    7:10   74.6    25    5.2   347      8.3   975.5    0.00      90    76.6
 270    7:20   75.4    24    5.5   348      8.1   975.6    0.00      33    77.3
 270    7:30   76.2    23    5.7   352      8.8   975.9    0.00     199    78.2
 270    7:40   76.9    22    6.4   355      9.8   976.0    0.00     247    79.0
 270    7:50   77.6    21    6.2   354      8.1   976.2    0.00     366    79.8
 270    8:00   78.3    21    6.3   348      9.1   976.4    0.00     393    80.6
 270    8:10   79.0    20    5.8     1      8.6   976.4    0.00     421    81.5
 270    8:20   79.7    20    4.6   340      7.3   976.5    0.00     293    82.4
 270    8:30   80.2    20    5.3   327      8.4   976.5    0.00     360    83.4
 270    8:40   80.7    19    4.8   319      9.1   976.7    0.00     499    84.3
 270    8:50   81.4    19    4.7   306      7.3   976.7    0.00     522    85.2
 270    9:00   82.0    18    4.8   326      8.8   976.6    0.00     236    86.1
 270    9:10   82.6    18    3.9   307      8.1   976.5    0.00     448    87.0
 270    9:20   83.7    17    5.2   330      9.6   976.5    0.00     589    87.9
 270    9:30   84.4    17    4.6   317      9.7   976.5    0.00     608    88.6
 270    9:40   85.2    16    2.8     5      9.4   976.4    0.00     626    89.3
 270    9:50   86.5    15    5.1    17      9.5   976.4    0.00     643    90.0
 270   10:00   87.2    15    5.8    42      9.1   976.3    0.00     659    90.4
 270   10:10   87.5    15    6.3    44     10.9   976.3    0.00     673    90.2
 270   10:20   87.9    15    6.1    30     10.7   976.2    0.00     686    89.6
 270   10:30   88.8    14    6.7    30     11.4   976.0    0.00     697    89.0
 270   10:40   89.1    14    6.2    32     11.2   975.8    0.00     707    88.4
 270   10:50   90.1    13    6.8    11     13.4   975.6    0.00     717    88.0
 270   11:00   90.6    13    7.5   357     12.6   975.4    0.00     724    87.7
 270   11:10   90.7    12    7.9   345     14.3   975.2    0.00     729    87.5
 270   11:20   91.6    13    6.6   360     11.8   975.0    0.00     733    87.3
 270   11:30   91.8    12    6.8   343     12.6   974.9    0.00     734    87.2
 270   11:40   92.1    12    6.9   317     14.1   974.7    0.00     735    87.1
 270   11:50   92.3    12    6.9   330     14.5   974.5    0.00     734    87.0
 270   12:00   92.9    12    5.5   344     11.1   974.4    0.00     733    86.9
 270   12:10   92.7    12    4.9   334     12.3   974.2    0.00     731    86.8
 270   12:20   93.7    12    5.6   352     10.2   974.0    0.00     723    86.8
 270   12:30   93.3    11    4.4   309     10.7   973.9    0.00     715    86.7
 270   12:40   93.9    11    4.5   318     10.0   973.6    0.00     705    86.7
 270   12:50   94.2    11    6.3   336     12.2   973.5    0.00     693    86.7
 270   13:00   94.5    11    5.0   347      9.6   973.3    0.00     681    86.9
 270   13:10   94.6    11    4.0   330      8.6   973.1    0.00     666    87.1
 270   13:20   94.9    11    4.6   327     13.2   973.1    0.00     649    87.2

Return to Overton, Nevada graphs page.


Western Regional Climate Center,wrcc@dri.edu